Dry Prong, LA (71423)

3:00 PM CDT on April 21, 2015 (GMT -0500)
Fairfield | | Change Station
CLOSE
Current Station
Personal Weather Station
Location: Dry Prong, LA
Elevation: 166 ft
Nearby Weather Stations

Elev 166 ft 31.59 °N, 92.60 °W | Updated 9 minutes ago

Mostly Cloudy
Mostly Cloudy
69.7 °F
Feels Like 69.7 °F
N
0.0
Wind Variable Wind from NNE
Gusts 1.0 mph

Today
High -- | Low -- °F
--% Chance of Precip.
Yesterday
High -- | Low -- °F
Precip. -- in
6:35 AM 7:43 PM
Waxing Crescent, 12% visible
Pressure 30.02 in
Visibility 10.0 miles
Clouds Few 3100 ft
Scattered Clouds 7500 ft
Mostly Cloudy 11000 ft
Dew Point 55 °F
Humidity 59%
Rainfall in
Snow Depth Not available.
UV 2.9 out of 12
Pollen 8.80 out of 12
Air Quality Not available.
Flu Activity Local Activity
METAR KAEX 211953Z AUTO 16004KT 10SM -RA FEW031 SCT075 BKN110 22/11 A3001 RMK AO2 RAB47 SLP165 P0000 T02220106

More Conditions Fewer Conditions

Pressure 30.02 in
Visibility 10.0 miles
Clouds Few 3100 ft
Scattered Clouds 7500 ft
Mostly Cloudy 11000 ft
Dew Point 55 °F
Humidity 59%
Rainfall in
Snow Depth Not available.
UV 2.9 out of 12
Pollen 8.80 out of 12
Air Quality Not available.
Flu Activity Local Activity
METAR KAEX 211953Z AUTO 16004KT 10SM -RA FEW031 SCT075 BKN110 22/11 A3001 RMK AO2 RAB47 SLP165 P0000 T02220106

More Conditions Fewer Conditions

Nowcast | as of 12:50 PM CDT on April 21, 2015

Areas showers...and possible isolated thunderstorms continue moving to the east around 35 miles across the region...main activity is along and north of i20...and isolated else where. Some thunderstorms could produce dangerous lightning...gusty winds...and even small hail.

×

10-Day Weather Forecast

Almanac

Astronomy

Apr. 21, 2015 Rise Set
Actual Time
Civil Twilight
Nautical Twilight
Astronomical Twilight
Moon
Length of Visible Light
Length of Day
Tomorrow will be .
, % of the Moon is Illuminated

Today's Extremes

State Highs State Lows

Community

WunderPhotos

Upload Photos

1,815,526 photos uploaded!

WunderBlogs® & News

Nearby

Air Quality

  Air Quality AQ Index Pollutant
Not available.

Snow Depth

Station Depth Elevation

Earthquake Activity

City Distance Mag. Time & Date
Minimum magnitude displayed is 2.5.

Coastal Water Temperatures

Place Temperature

Stations

Nearby Weather Stations

Station Location Temp. Windchill Dew Point Humidity Wind Precip. Elev Updated Type